createdAt,value
2018-11-29T00:00:24.233Z,97031.41
2018-11-29T00:02:51.609Z,97027.76
2018-11-29T00:05:18.955Z,97031.55
2018-11-29T00:07:46.237Z,97024.21
2018-11-29T00:10:13.467Z,97025.64
2018-11-29T00:12:40.752Z,97032.30
2018-11-29T00:15:09.367Z,97033.44
2018-11-29T00:17:37.238Z,97016.73
2018-11-29T00:20:06.979Z,97014.11
2018-11-29T00:22:34.235Z,96999.44
2018-11-29T00:25:01.487Z,96997.25
2018-11-29T00:27:28.745Z,96990.42
2018-11-29T00:29:55.955Z,96992.09
2018-11-29T00:32:23.266Z,96995.46
2018-11-29T00:34:51.770Z,96997.64
2018-11-29T00:37:18.975Z,96995.38
2018-11-29T00:39:46.278Z,96999.88
2018-11-29T00:42:13.494Z,97003.16
2018-11-29T00:44:40.687Z,97016.69
2018-11-29T00:47:07.999Z,97016.33
2018-11-29T00:49:35.335Z,97007.08
2018-11-29T00:52:02.570Z,97003.80
2018-11-29T00:54:29.882Z,97005.59
2018-11-29T00:56:57.150Z,97012.04
2018-11-29T00:59:24.372Z,97005.67
2018-11-29T01:01:58.777Z,97008.64
2018-11-29T01:04:26.055Z,97008.44
2018-11-29T01:06:53.306Z,97002.85
2018-11-29T01:09:20.541Z,97004.19
2018-11-29T01:11:47.769Z,96995.44
2018-11-29T01:14:15.022Z,96993.75
2018-11-29T01:16:42.268Z,97000.40
2018-11-29T01:19:09.530Z,97004.81
2018-11-29T01:21:36.782Z,97005.67
2018-11-29T01:24:04.087Z,97009.62
2018-11-29T01:26:31.289Z,97003.63
2018-11-29T01:28:58.526Z,97014.77
2018-11-29T01:31:25.765Z,97010.87
2018-11-29T01:33:53.314Z,97002.19
2018-11-29T01:36:20.532Z,97001.33
2018-11-29T01:38:47.781Z,97003.48
2018-11-29T01:41:15.043Z,96996.52
2018-11-29T01:43:42.435Z,96995.19
2018-11-29T01:46:09.689Z,96998.63
2018-11-29T01:48:36.940Z,97006.36
2018-11-29T01:51:04.597Z,97003.16
2018-11-29T01:53:31.879Z,97002.17
2018-11-29T01:55:59.102Z,96994.36
2018-11-29T01:58:26.443Z,96995.38
2018-11-29T02:00:53.674Z,96993.39
2018-11-29T02:03:22.110Z,96996.44
2018-11-29T02:05:49.538Z,96986.00
2018-11-29T02:08:16.815Z,96987.17
2018-11-29T02:10:50.997Z,96990.17
2018-11-29T02:13:19.141Z,96992.98
2018-11-29T02:15:46.525Z,96990.63
2018-11-29T02:18:13.843Z,96980.77
2018-11-29T02:20:41.099Z,96973.58
2018-11-29T02:23:08.358Z,96963.73
2018-11-29T02:25:35.648Z,96961.11
2018-11-29T02:28:03.490Z,96961.34
2018-11-29T02:30:30.759Z,96961.73
2018-11-29T02:32:58.006Z,96958.50
2018-11-29T02:35:25.245Z,96945.25
2018-11-29T02:37:54.362Z,96949.64
2018-11-29T02:40:21.650Z,96952.43
2018-11-29T02:42:49.396Z,96948.17
2018-11-29T02:45:20.662Z,96959.96
2018-11-29T02:47:50.954Z,96950.80
2018-11-29T02:50:18.238Z,96947.49
2018-11-29T02:52:49.427Z,96944.57
2018-11-29T02:55:19.848Z,96919.23
2018-11-29T02:57:47.129Z,96944.91
2018-11-29T03:00:15.333Z,96936.66
2018-11-29T03:02:42.692Z,96934.70
2018-11-29T03:05:10.073Z,96938.97
2018-11-29T03:07:37.622Z,96937.88
2018-11-29T03:10:07.498Z,96933.11
2018-11-29T03:12:34.861Z,96934.83
2018-11-29T03:15:02.246Z,96922.99
2018-11-29T03:17:29.544Z,96925.73
2018-11-29T03:19:59.622Z,96924.56
2018-11-29T03:22:26.876Z,96918.59
2018-11-29T03:24:54.094Z,96915.15
2018-11-29T03:27:21.361Z,96912.15
2018-11-29T03:29:54.537Z,96909.09
2018-11-29T03:32:21.856Z,96914.09
2018-11-29T03:34:50.810Z,96912.72
2018-11-29T03:37:18.107Z,96914.64
2018-11-29T03:39:45.363Z,96918.67
2018-11-29T03:42:12.641Z,96913.44
2018-11-29T03:44:39.869Z,96912.45
2018-11-29T03:47:07.063Z,96912.61
2018-11-29T03:49:34.308Z,96911.76
2018-11-29T03:52:01.673Z,96924.73
2018-11-29T03:54:28.894Z,96925.04
2018-11-29T03:56:56.154Z,96917.40
2018-11-29T03:59:23.353Z,96915.70
2018-11-29T04:01:50.963Z,96914.97
2018-11-29T04:04:18.160Z,96914.06
2018-11-29T04:06:45.366Z,96906.13
2018-11-29T04:09:12.629Z,96908.41
2018-11-29T04:11:39.848Z,96907.62
2018-11-29T04:14:07.112Z,96900.88
2018-11-29T04:16:34.375Z,96899.05
2018-11-29T04:19:02.013Z,96896.81
2018-11-29T04:21:29.243Z,96894.16
2018-11-29T04:23:56.448Z,96892.69
2018-11-29T04:26:24.358Z,96886.76
2018-11-29T04:28:51.582Z,96884.37
2018-11-29T04:31:18.804Z,96881.98
2018-11-29T04:33:46.142Z,96875.81
2018-11-29T04:36:13.451Z,96875.48
2018-11-29T04:38:40.696Z,96872.98
2018-11-29T04:41:07.961Z,96868.44
2018-11-29T04:43:35.181Z,96871.96
2018-11-29T04:47:13.917Z,96867.36
2018-11-29T04:49:41.595Z,96879.53
2018-11-29T04:52:08.857Z,96879.31
2018-11-29T04:54:36.144Z,96824.10
2018-11-29T04:57:03.413Z,96868.44
2018-11-29T04:59:30.995Z,96874.04
2018-11-29T05:01:58.378Z,96871.46
2018-11-29T05:04:25.609Z,96875.63
2018-11-29T05:06:52.856Z,96876.14
2018-11-29T05:09:20.157Z,96870.85
2018-11-29T05:11:47.407Z,96877.71
2018-11-29T05:14:14.754Z,96875.87
2018-11-29T05:16:42.017Z,96881.33
2018-11-29T05:19:09.314Z,96854.67
2018-11-29T05:21:36.597Z,96878.18
2018-11-29T05:24:03.832Z,96882.41
2018-11-29T05:26:31.070Z,96886.44
2018-11-29T05:28:58.356Z,96878.12
2018-11-29T05:31:25.630Z,96872.06
2018-11-29T05:33:52.876Z,96877.26
2018-11-29T05:36:20.152Z,96874.25
2018-11-29T05:38:47.386Z,96885.42
2018-11-29T05:41:14.597Z,96888.63
2018-11-29T05:43:41.771Z,96878.41
2018-11-29T05:46:09.046Z,96880.55
2018-11-29T05:48:36.311Z,96870.59
2018-11-29T05:51:03.693Z,96867.89
2018-11-29T05:53:30.896Z,96861.95
2018-11-29T05:55:58.138Z,96852.38
2018-11-29T05:58:25.442Z,96842.51
2018-11-29T06:00:52.763Z,96474.42
2018-11-29T06:03:20.016Z,96843.70
2018-11-29T06:05:47.377Z,96851.32
2018-11-29T06:08:14.700Z,96857.03
2018-11-29T06:10:42.022Z,96856.41
2018-11-29T06:13:09.284Z,96858.09
2018-11-29T06:15:36.596Z,96854.66
2018-11-29T06:18:03.777Z,96854.49
2018-11-29T06:20:31.099Z,96855.78
2018-11-29T06:22:58.440Z,96860.85
2018-11-29T06:25:25.679Z,96858.30
2018-11-29T06:27:52.925Z,96857.79
2018-11-29T06:30:21.020Z,96865.17
2018-11-29T06:32:49.159Z,96857.12
2018-11-29T06:35:16.476Z,96851.31
2018-11-29T06:37:43.746Z,96848.97
2018-11-29T06:40:11.960Z,96841.20
2018-11-29T06:42:39.269Z,96834.33
2018-11-29T06:45:23.552Z,96829.64
2018-11-29T06:47:51.624Z,96826.88
2018-11-29T06:50:18.860Z,96824.59
2018-11-29T06:52:47.139Z,96824.20
2018-11-29T06:55:16.634Z,96833.77
2018-11-29T06:57:44.119Z,96836.03
2018-11-29T07:00:26.655Z,96832.09
2018-11-29T07:02:54.079Z,96833.80
2018-11-29T07:05:21.338Z,96837.13
2018-11-29T07:07:52.006Z,96844.84
2018-11-29T07:10:25.038Z,96852.42
2018-11-29T07:12:52.328Z,96857.44
2018-11-29T07:15:19.575Z,96850.77
2018-11-29T07:17:46.867Z,96845.83
2018-11-29T07:20:15.670Z,96842.83
2018-11-29T07:22:45.178Z,96841.93
2018-11-29T07:25:12.736Z,96832.73
2018-11-29T07:27:40.029Z,96823.83
2018-11-29T07:30:14.743Z,96820.94
2018-11-29T07:32:42.050Z,96817.93
2018-11-29T07:35:10.358Z,96817.19
2018-11-29T07:37:37.977Z,96818.24
2018-11-29T07:40:07.266Z,96813.74
2018-11-29T07:42:34.570Z,96805.98
2018-11-29T07:45:01.957Z,96818.70
2018-11-29T07:47:29.219Z,96819.11
2018-11-29T07:49:56.433Z,96810.60
2018-11-29T07:52:23.723Z,96801.30
2018-11-29T07:54:51.018Z,96805.06
2018-11-29T07:57:18.222Z,96812.52
2018-11-29T07:59:45.767Z,96810.39
2018-11-29T08:02:13.006Z,96807.19
2018-11-29T08:04:40.225Z,96806.35
2018-11-29T08:07:07.525Z,96802.22
2018-11-29T08:09:34.767Z,96792.66
2018-11-29T08:12:04.291Z,96784.86
2018-11-29T08:14:31.737Z,96787.73
2018-11-29T08:16:59.011Z,96784.41
2018-11-29T08:19:26.324Z,96773.59
2018-11-29T08:21:53.615Z,96777.57
2018-11-29T08:24:20.874Z,96748.22
2018-11-29T08:26:48.218Z,96774.68
2018-11-29T08:29:15.422Z,96761.34
2018-11-29T08:31:42.725Z,96769.05
2018-11-29T08:34:10.031Z,96775.84
2018-11-29T08:36:37.254Z,96773.89
2018-11-29T08:39:07.325Z,96749.62
2018-11-29T08:41:34.591Z,96762.45
2018-11-29T08:44:01.889Z,96763.30
2018-11-29T08:46:29.110Z,96763.26
2018-11-29T08:48:56.361Z,96766.27
2018-11-29T08:51:23.766Z,96767.88
2018-11-29T08:53:51.009Z,96766.59
2018-11-29T08:56:18.275Z,96776.62
2018-11-29T08:58:45.540Z,96772.56
2018-11-29T09:01:12.809Z,96774.98
2018-11-29T09:03:41.580Z,96783.06
2018-11-29T09:06:12.717Z,96785.52
2018-11-29T09:08:40.039Z,96780.48
2018-11-29T09:11:07.250Z,96774.47
2018-11-29T09:13:34.486Z,96770.16
2018-11-29T09:16:01.749Z,96777.06
2018-11-29T09:18:29.107Z,96784.23
2018-11-29T09:20:56.302Z,96776.00
2018-11-29T09:23:23.588Z,96776.27
2018-11-29T09:25:50.831Z,96772.75
2018-11-29T09:28:18.305Z,96769.99
2018-11-29T09:30:45.524Z,96766.08
2018-11-29T09:33:12.813Z,96767.40
2018-11-29T09:35:40.057Z,96780.12
2018-11-29T09:38:07.292Z,96783.13
2018-11-29T09:40:34.609Z,96781.28
2018-11-29T09:43:01.824Z,96770.54
2018-11-29T09:45:29.124Z,96768.52
2018-11-29T09:47:56.373Z,96737.06
2018-11-29T09:50:24.568Z,96742.41
2018-11-29T09:52:51.774Z,96730.14
2018-11-29T09:55:19.030Z,96720.34
2018-11-29T09:57:47.210Z,96718.61
2018-11-29T10:00:29.382Z,96725.99
2018-11-29T10:03:06.296Z,96727.19
2018-11-29T10:05:33.530Z,96716.61
2018-11-29T10:08:00.753Z,96718.63
2018-11-29T10:10:28.015Z,96733.67
2018-11-29T10:12:55.232Z,96717.06
2018-11-29T10:15:22.523Z,96736.86
2018-11-29T10:17:50.167Z,96727.56
2018-11-29T10:20:17.326Z,96712.08
2018-11-29T10:22:44.560Z,96703.78
2018-11-29T10:25:12.819Z,96699.59
2018-11-29T10:27:40.806Z,96692.55
2018-11-29T10:30:17.508Z,96688.34
2018-11-29T10:32:44.758Z,96687.74
2018-11-29T10:35:12.020Z,96693.34
2018-11-29T10:37:39.214Z,96685.14
2018-11-29T10:40:07.952Z,96690.33
2018-11-29T10:42:35.240Z,96694.13
2018-11-29T10:45:02.490Z,96691.95
2018-11-29T10:47:29.761Z,96693.30
2018-11-29T10:49:57.324Z,96690.55
2018-11-29T10:52:24.596Z,96692.41
2018-11-29T10:54:51.881Z,96659.37
2018-11-29T10:57:19.095Z,96693.73
2018-11-29T10:59:46.354Z,96692.84
2018-11-29T11:02:18.148Z,96683.38
2018-11-29T11:04:45.357Z,96680.48
2018-11-29T11:07:12.651Z,96674.14
2018-11-29T11:09:39.805Z,96673.72
2018-11-29T11:12:10.239Z,96671.39
2018-11-29T11:14:37.710Z,96658.34
2018-11-29T11:17:05.034Z,96659.79
2018-11-29T11:19:32.273Z,96668.09
2018-11-29T11:21:59.513Z,96679.27
2018-11-29T11:24:26.824Z,96685.86
2018-11-29T11:26:54.048Z,96676.89
2018-11-29T11:29:21.202Z,96676.30
2018-11-29T11:31:48.440Z,96675.81
2018-11-29T11:34:15.745Z,96668.25
2018-11-29T11:36:42.954Z,96650.03
2018-11-29T11:39:10.199Z,96641.27
2018-11-29T11:41:37.444Z,96642.05
2018-11-29T11:44:04.743Z,96655.55
2018-11-29T11:46:32.050Z,96666.61
2018-11-29T11:48:59.379Z,96675.19
2018-11-29T11:51:26.557Z,96670.44
2018-11-29T11:53:53.815Z,96669.03
2018-11-29T11:56:21.099Z,96668.50
2018-11-29T11:58:48.348Z,96661.64
2018-11-29T12:01:15.552Z,96646.73
2018-11-29T12:03:42.805Z,96635.49
2018-11-29T12:06:09.976Z,96633.34
2018-11-29T12:08:37.240Z,96633.63
2018-11-29T12:11:04.703Z,96628.77
2018-11-29T12:13:31.954Z,96628.03
2018-11-29T12:15:59.200Z,96624.91
2018-11-29T12:18:26.455Z,96627.27
2018-11-29T12:20:53.635Z,96619.39
2018-11-29T12:23:20.876Z,96616.66
2018-11-29T12:25:48.082Z,96606.45
2018-11-29T12:28:15.432Z,96601.17
2018-11-29T12:30:45.520Z,96604.63
2018-11-29T12:33:12.781Z,96602.54
2018-11-29T12:35:40.029Z,96597.72
2018-11-29T12:38:07.255Z,96597.38
2018-11-29T12:40:34.483Z,96589.59
2018-11-29T12:43:01.745Z,96589.92
2018-11-29T12:45:29.086Z,96589.23
2018-11-29T12:47:56.315Z,96595.78
2018-11-29T12:50:24.676Z,96592.50
2018-11-29T12:52:52.016Z,96578.98
2018-11-29T12:55:20.186Z,96576.54
2018-11-29T12:57:47.436Z,96573.01
2018-11-29T13:00:21.145Z,96558.66
2018-11-29T13:02:52.275Z,96559.48
2018-11-29T13:05:19.564Z,96561.41
2018-11-29T13:07:48.846Z,96558.72
2018-11-29T13:10:21.750Z,96546.60
2018-11-29T13:12:49.060Z,96537.79
2018-11-29T13:15:17.394Z,96532.20
2018-11-29T13:17:44.688Z,96527.41
2018-11-29T13:20:14.072Z,96521.64
2018-11-29T13:22:43.514Z,96527.66
2018-11-29T13:25:14.640Z,96529.44
2018-11-29T13:27:42.032Z,96528.88
2018-11-29T13:30:14.271Z,96526.30
2018-11-29T13:32:41.581Z,96521.83
2018-11-29T13:35:16.475Z,96524.04
2018-11-29T13:37:46.194Z,96516.72
2018-11-29T13:40:13.432Z,96516.80
2018-11-29T13:42:40.704Z,96511.61
2018-11-29T13:45:09.115Z,96508.64
2018-11-29T13:47:36.598Z,96513.75
2018-11-29T13:50:05.489Z,96508.61
2018-11-29T13:52:32.700Z,96506.02
2018-11-29T13:54:59.909Z,96514.36
2018-11-29T13:57:27.181Z,96516.45
2018-11-29T13:59:54.354Z,96523.59
2018-11-29T14:02:21.598Z,96523.59
2018-11-29T14:04:48.901Z,96524.63
2018-11-29T14:07:16.138Z,96512.66
2018-11-29T14:09:43.427Z,96500.49
2018-11-29T14:12:10.626Z,96483.66
2018-11-29T14:14:37.894Z,96496.16
2018-11-29T14:17:05.203Z,96499.88
2018-11-29T14:19:32.399Z,96502.91
2018-11-29T14:21:59.638Z,96501.75
2018-11-29T14:24:26.878Z,96503.79
2018-11-29T14:26:54.202Z,96501.75
2018-11-29T14:29:21.494Z,96506.27
2018-11-29T14:31:48.708Z,96496.03
2018-11-29T14:34:15.952Z,96497.70
2018-11-29T14:36:43.161Z,96488.03
2018-11-29T14:39:10.431Z,96478.95
2018-11-29T14:41:37.724Z,96480.22
2018-11-29T14:44:05.157Z,96471.61
2018-11-29T14:46:32.439Z,96460.39
2018-11-29T14:48:59.710Z,96454.83
2018-11-29T14:51:27.020Z,96456.31
2018-11-29T14:53:54.636Z,96444.08
2018-11-29T14:56:21.856Z,96436.29
2018-11-29T14:58:49.144Z,96420.08
2018-11-29T15:01:16.373Z,96407.94
2018-11-29T15:03:43.608Z,96403.84
2018-11-29T15:06:10.851Z,96397.33
2018-11-29T15:08:38.139Z,96387.95
2018-11-29T15:11:05.425Z,96389.16
2018-11-29T15:13:32.632Z,96396.41
2018-11-29T15:15:59.824Z,96414.45
2018-11-29T15:18:27.052Z,96439.77
2018-11-29T15:20:54.332Z,96458.59
2018-11-29T15:23:21.612Z,96477.05
2018-11-29T15:25:48.890Z,96478.52
2018-11-29T15:28:16.198Z,96494.09
2018-11-29T15:30:43.568Z,96503.98
2018-11-29T15:33:10.836Z,96511.07
2018-11-29T15:35:38.078Z,96510.87
2018-11-29T15:38:05.581Z,96504.06
2018-11-29T15:40:33.310Z,96511.43
2018-11-29T15:43:00.567Z,96494.94
2018-11-29T15:45:27.949Z,96490.24
2018-11-29T15:47:55.214Z,96483.27
2018-11-29T15:50:22.431Z,96476.53
2018-11-29T15:52:49.735Z,96477.20
2018-11-29T15:55:19.150Z,96467.81
2018-11-29T15:57:47.280Z,96467.23
2018-11-29T16:00:17.728Z,96466.61
2018-11-29T16:02:45.685Z,96459.30
2018-11-29T16:05:12.914Z,96450.97
2018-11-29T16:07:40.322Z,96440.90
2018-11-29T16:10:09.204Z,96454.94
2018-11-29T16:12:36.633Z,96448.38
2018-11-29T16:15:07.261Z,96450.05
2018-11-29T16:17:34.588Z,96451.27
2018-11-29T16:20:02.058Z,96444.86
2018-11-29T16:22:31.755Z,96445.23
2018-11-29T16:24:59.039Z,96432.74
2018-11-29T16:27:31.374Z,96411.27
2018-11-29T16:30:03.727Z,96428.66
2018-11-29T16:32:30.975Z,96427.85
2018-11-29T16:34:59.944Z,96427.48
2018-11-29T16:37:27.493Z,96427.82
2018-11-29T16:39:54.763Z,96427.82
2018-11-29T16:42:22.483Z,96434.64
2018-11-29T16:44:59.807Z,96429.86
2018-11-29T16:47:27.415Z,96424.53
2018-11-29T16:49:54.654Z,96434.53
2018-11-29T16:52:21.909Z,96423.67
2018-11-29T16:54:49.166Z,96415.90
2018-11-29T16:57:16.481Z,96427.75
2018-11-29T16:59:43.767Z,96417.01
2018-11-29T17:02:11.044Z,96429.20
2018-11-29T17:04:38.304Z,96426.27
2018-11-29T17:07:06.276Z,96427.82
2018-11-29T17:09:33.522Z,96420.72
2018-11-29T17:12:00.798Z,96423.71
2018-11-29T17:14:28.088Z,96422.12
2018-11-29T17:16:56.269Z,96422.97
2018-11-29T17:19:24.743Z,96411.83
2018-11-29T17:21:52.306Z,96417.74
2018-11-29T17:24:19.612Z,96412.19
2018-11-29T17:26:46.852Z,96406.83
2018-11-29T17:29:14.198Z,96417.07
2018-11-29T17:31:41.484Z,96409.67
2018-11-29T17:34:08.774Z,96416.59
2018-11-29T17:36:35.998Z,96413.06
2018-11-29T17:39:05.133Z,96412.55
2018-11-29T17:41:32.450Z,96424.70
2018-11-29T17:43:59.684Z,96427.17
2018-11-29T17:46:26.977Z,96350.23
2018-11-29T17:48:54.244Z,96420.89
2018-11-29T17:51:21.524Z,96423.00
2018-11-29T17:53:48.778Z,96422.08
2018-11-29T17:56:16.046Z,96427.06
2018-11-29T17:58:43.301Z,96427.58
2018-11-29T18:01:10.602Z,96427.06
2018-11-29T18:03:37.857Z,96423.60
2018-11-29T18:06:05.116Z,96421.06
2018-11-29T18:08:32.334Z,96428.34
2018-11-29T18:10:59.555Z,96429.19
2018-11-29T18:13:29.113Z,96424.38
2018-11-29T18:15:56.336Z,96427.22
2018-11-29T18:18:23.604Z,96425.82
2018-11-29T18:20:50.794Z,96423.34
2018-11-29T18:23:18.131Z,96417.55
2018-11-29T18:25:45.619Z,96411.77
2018-11-29T18:28:12.922Z,96414.98
2018-11-29T18:30:40.235Z,96407.14
2018-11-29T18:33:07.471Z,96405.34
2018-11-29T18:35:35.043Z,96405.95
2018-11-29T18:38:02.296Z,96414.94
2018-11-29T18:40:29.538Z,96404.80
2018-11-29T18:42:57.866Z,96414.52
2018-11-29T18:45:25.264Z,96422.44
2018-11-29T18:47:52.964Z,96421.63
2018-11-29T18:50:21.138Z,96412.25
2018-11-29T18:52:48.552Z,96413.13
2018-11-29T18:55:16.258Z,96400.81
2018-11-29T18:57:43.620Z,96425.64
2018-11-29T19:00:13.267Z,96427.63
2018-11-29T19:02:40.721Z,96412.96
2018-11-29T19:05:08.547Z,96410.31
2018-11-29T19:07:36.414Z,96405.37
2018-11-29T19:10:06.600Z,96408.09
2018-11-29T19:12:33.957Z,96406.05
2018-11-29T19:15:03.067Z,96418.38
2018-11-29T19:17:30.264Z,96416.58
2018-11-29T19:19:57.548Z,96424.10
2018-11-29T19:22:24.819Z,96412.83
2018-11-29T19:24:52.068Z,96407.45
2018-11-29T19:27:19.332Z,96398.84
2018-11-29T19:29:46.502Z,96396.25
2018-11-29T19:32:13.799Z,96396.70
2018-11-29T19:34:41.243Z,96407.52
2018-11-29T19:37:08.564Z,96406.16
2018-11-29T19:39:35.868Z,96404.38
2018-11-29T19:42:03.158Z,96405.81
2018-11-29T19:44:30.382Z,96403.90
2018-11-29T19:46:57.643Z,96409.09
2018-11-29T19:49:25.789Z,96401.25
2018-11-29T19:51:53.123Z,96403.16
2018-11-29T19:54:20.394Z,96413.98
2018-11-29T19:56:48.064Z,96408.88
2018-11-29T19:59:15.299Z,96415.54
2018-11-29T20:01:46.888Z,96418.58
2018-11-29T20:04:14.149Z,96412.39
2018-11-29T20:06:41.412Z,96412.48
2018-11-29T20:09:08.676Z,96412.18
2018-11-29T20:11:39.941Z,96412.11
2018-11-29T20:14:07.200Z,96410.20
2018-11-29T20:16:38.947Z,96404.80
2018-11-29T20:19:06.252Z,96408.39
2018-11-29T20:21:37.264Z,96415.84
2018-11-29T20:24:07.314Z,96415.67
2018-11-29T20:26:34.573Z,96395.38
2018-11-29T20:29:01.840Z,96410.06
2018-11-29T20:31:29.295Z,96410.34
2018-11-29T20:33:56.556Z,96412.55
2018-11-29T20:36:23.928Z,96411.97
2018-11-29T20:38:51.140Z,96412.34
2018-11-29T20:41:18.470Z,96411.89
2018-11-29T20:43:45.712Z,96416.38
2018-11-29T20:46:13.105Z,96419.55
2018-11-29T20:48:40.327Z,96419.96
2018-11-29T20:51:07.580Z,96419.48
2018-11-29T20:53:37.410Z,96414.78
2018-11-29T20:56:07.739Z,96418.95
2018-11-29T20:58:35.184Z,96414.08
2018-11-29T21:01:02.454Z,96424.73
2018-11-29T21:03:29.803Z,96415.66
2018-11-29T21:05:57.338Z,96428.08
2018-11-29T21:08:24.670Z,96424.63
2018-11-29T21:10:51.989Z,96429.87
2018-11-29T21:13:19.249Z,96428.70
2018-11-29T21:15:46.538Z,96428.45
2018-11-29T21:18:14.367Z,96425.37
2018-11-29T21:20:42.429Z,96427.26
2018-11-29T21:23:13.404Z,96419.52
2018-11-29T21:25:43.972Z,96415.55
2018-11-29T21:28:11.233Z,96416.77
2018-11-29T21:30:38.499Z,96412.13
2018-11-29T21:33:06.330Z,96410.78
2018-11-29T21:35:33.623Z,96413.52
2018-11-29T21:38:10.245Z,96414.28
2018-11-29T21:40:37.498Z,96416.11
2018-11-29T21:43:04.777Z,96404.58
2018-11-29T21:45:32.015Z,96399.80
2018-11-29T21:47:59.258Z,96400.42
2018-11-29T21:50:26.495Z,96402.84
2018-11-29T21:52:53.756Z,96403.76
2018-11-29T21:55:21.041Z,96405.42
2018-11-29T21:57:48.276Z,96400.58
2018-11-29T22:00:18.022Z,96400.02
2018-11-29T22:02:48.481Z,96400.70
2018-11-29T22:05:15.734Z,96398.28
2018-11-29T22:07:42.997Z,96390.84
2018-11-29T22:10:11.992Z,96392.20
2018-11-29T22:12:39.224Z,96389.80
2018-11-29T22:15:08.535Z,96387.47
2018-11-29T22:17:38.902Z,96391.52
2018-11-29T22:20:06.300Z,96394.74
2018-11-29T22:22:33.609Z,96399.94
2018-11-29T22:25:00.834Z,96389.63
2018-11-29T22:27:28.075Z,96383.55
2018-11-29T22:29:55.378Z,96390.07
2018-11-29T22:32:22.626Z,96389.95
2018-11-29T22:34:50.797Z,96385.18
2018-11-29T22:37:18.090Z,96383.66
2018-11-29T22:39:45.365Z,96378.23
2018-11-29T22:42:12.761Z,96383.34
2018-11-29T22:44:40.052Z,96369.25
2018-11-29T22:47:07.265Z,96380.49
2018-11-29T22:49:34.466Z,96386.79
2018-11-29T22:52:01.759Z,96387.80
2018-11-29T22:54:29.064Z,96385.06
2018-11-29T22:56:56.398Z,96386.23
2018-11-29T22:59:23.648Z,96383.45
2018-11-29T23:01:50.861Z,96388.61
2018-11-29T23:04:18.168Z,96381.61
2018-11-29T23:06:45.423Z,96378.13
2018-11-29T23:09:12.659Z,96391.14
2018-11-29T23:11:39.967Z,96386.84
2018-11-29T23:14:07.252Z,96385.97
2018-11-29T23:16:34.524Z,96390.33
2018-11-29T23:19:02.016Z,96389.42
2018-11-29T23:21:29.280Z,96386.73
2018-11-29T23:23:56.554Z,96384.10
2018-11-29T23:26:23.775Z,96390.34
2018-11-29T23:28:50.992Z,96387.53
2018-11-29T23:31:18.244Z,96388.94
2018-11-29T23:33:45.481Z,96388.18
2018-11-29T23:36:12.802Z,96388.14
2018-11-29T23:38:39.996Z,96379.75
2018-11-29T23:41:07.236Z,96380.17
2018-11-29T23:43:34.598Z,96379.11
2018-11-29T23:46:01.903Z,96384.15
2018-11-29T23:51:05.306Z,96368.83
2018-11-29T23:53:32.601Z,96363.03
2018-11-29T23:56:01.685Z,96355.22
2018-11-29T23:58:28.887Z,96364.04
